Aviation Digital Data Service (ADDS)

Output produced by METARs form (1836 UTC 19 April 2019)
found at http://www.aviationweather.gov/metar/data/
 
Forecast for: AMD
Text: TAF AMD LFPV 191623Z 1916/2015 04008KT CAVOK
Forecast period: 1600 UTC 19 April 2019 to 1500 UTC 20 April 2019
Forecast type: FROM: standard forecast or significant change
Winds: from the NE (40 degrees) at 9 MPH (8 knots; 4.1 m/s)
Visibility: 6 or more miles 10+ km)
Ceiling: unknown
Clouds: missing
Weather: NSW  (no significant weather)
Text: TEMPO 1917/2003 BKN040TCU
Forecast period: 1700 UTC 19 April 2019 to 0300 UTC 20 April 2019
Forecast type: TEMPORARY: The following changes expected for less than half the time period
Visibility: missing
Ceiling: 4000 feet AGL
Clouds: broken clouds at 4000 feet AGL
Weather: no significant weather forecast for this period